createdAt,value
2019-05-23T00:00:53.474Z,14.90
2019-05-23T00:03:46.939Z,14.80
2019-05-23T00:06:38.251Z,14.80
2019-05-23T00:09:13.778Z,14.80
2019-05-23T00:12:05.769Z,14.70
2019-05-23T00:14:37.855Z,14.70
2019-05-23T00:17:04.873Z,14.70
2019-05-23T00:19:39.127Z,14.70
2019-05-23T00:22:07.692Z,14.60
2019-05-23T00:24:34.431Z,14.60
2019-05-23T00:27:08.467Z,14.60
2019-05-23T00:29:35.826Z,14.60
2019-05-23T00:32:11.184Z,14.60
2019-05-23T00:34:45.598Z,14.50
2019-05-23T00:37:20.902Z,14.50
2019-05-23T00:39:47.727Z,14.50
2019-05-23T00:42:21.157Z,14.50
2019-05-23T00:45:16.366Z,14.50
2019-05-23T00:47:55.607Z,14.40
2019-05-23T00:50:24.051Z,14.50
2019-05-23T00:52:52.511Z,14.50
2019-05-23T00:55:26.529Z,14.40
2019-05-23T00:57:54.180Z,14.40
2019-05-23T01:00:47.946Z,14.40
2019-05-23T01:03:21.983Z,14.40
2019-05-23T01:05:56.071Z,14.30
2019-05-23T01:08:31.291Z,14.30
2019-05-23T01:11:05.743Z,14.30
2019-05-23T01:13:32.501Z,14.30
2019-05-23T01:15:59.539Z,14.30
2019-05-23T01:18:32.992Z,14.30
2019-05-23T01:21:01.444Z,14.20
2019-05-23T01:23:36.363Z,14.20
2019-05-23T01:26:03.308Z,14.20
2019-05-23T01:28:36.763Z,14.10
2019-05-23T01:31:24.731Z,14.10
2019-05-23T01:34:00.246Z,14.10
2019-05-23T01:36:34.447Z,14.00
2019-05-23T01:39:09.877Z,14.00
2019-05-23T01:41:43.891Z,14.00
2019-05-23T01:44:11.212Z,14.00
2019-05-23T01:46:39.371Z,13.90
2019-05-23T01:49:14.249Z,13.90
2019-05-23T01:51:41.008Z,13.80
2019-05-23T01:54:08.930Z,13.80
2019-05-23T01:56:42.182Z,13.80
2019-05-23T01:59:09.246Z,13.80
2019-05-23T02:01:50.745Z,13.70
2019-05-23T02:04:24.120Z,13.70
2019-05-23T02:06:51.660Z,13.70
2019-05-23T02:09:25.162Z,13.70
2019-05-23T02:11:52.406Z,13.70
2019-05-23T02:14:19.738Z,13.60
2019-05-23T02:16:53.448Z,13.60
2019-05-23T02:19:20.293Z,13.60
2019-05-23T02:22:02.018Z,13.60
2019-05-23T02:24:38.088Z,13.50
2019-05-23T02:27:06.339Z,13.50
2019-05-23T02:29:47.074Z,13.50
2019-05-23T02:32:14.505Z,13.40
2019-05-23T02:34:48.352Z,13.40
2019-05-23T02:37:31.974Z,13.40
2019-05-23T02:40:15.783Z,13.40
2019-05-23T02:42:47.250Z,13.30
2019-05-23T02:45:25.988Z,13.30
2019-05-23T02:47:52.496Z,13.30
2019-05-23T02:50:42.286Z,13.30
2019-05-23T02:53:12.544Z,13.20
2019-05-23T02:55:40.087Z,13.20
2019-05-23T02:58:32.294Z,13.20
2019-05-23T03:01:04.342Z,13.20
2019-05-23T03:03:45.450Z,13.20
2019-05-23T03:06:13.884Z,13.10
2019-05-23T03:08:40.507Z,13.10
2019-05-23T03:11:21.846Z,13.10
2019-05-23T03:13:51.483Z,13.00
2019-05-23T03:16:21.027Z,13.00
2019-05-23T03:18:56.915Z,12.90
2019-05-23T03:21:30.251Z,12.90
2019-05-23T03:23:57.279Z,12.90
2019-05-23T03:26:46.688Z,12.90
2019-05-23T03:29:19.855Z,12.80
2019-05-23T03:31:48.804Z,12.80
2019-05-23T03:34:17.206Z,12.80
2019-05-23T03:36:50.882Z,12.70
2019-05-23T03:39:17.739Z,12.70
2019-05-23T03:41:45.084Z,12.70
2019-05-23T03:44:19.143Z,12.70
2019-05-23T03:46:47.790Z,12.60
2019-05-23T03:49:14.418Z,12.60
2019-05-23T03:51:47.540Z,12.60
2019-05-23T03:54:21.757Z,12.50
2019-05-23T03:56:48.830Z,12.50
2019-05-23T03:59:15.457Z,12.50
2019-05-23T04:01:49.354Z,12.50
2019-05-23T04:04:23.896Z,12.50
2019-05-23T04:07:05.636Z,12.50
2019-05-23T04:09:32.284Z,12.50
2019-05-23T04:11:58.929Z,12.40
2019-05-23T04:14:32.071Z,12.40
2019-05-23T04:16:58.810Z,12.40
2019-05-23T04:19:32.369Z,12.40
2019-05-23T04:21:59.007Z,12.40
2019-05-23T04:24:25.745Z,12.30
2019-05-23T04:26:59.019Z,12.30
2019-05-23T04:29:25.885Z,12.30
2019-05-23T04:32:07.177Z,12.30
2019-05-23T04:34:27.507Z,12.30
2019-05-23T04:36:54.258Z,12.30
2019-05-23T04:39:20.926Z,12.30
2019-05-23T04:41:54.189Z,12.30
2019-05-23T04:44:20.831Z,12.30
2019-05-23T04:46:47.460Z,12.30
2019-05-23T04:49:21.380Z,12.30
2019-05-23T04:51:48.016Z,12.30
2019-05-23T04:54:14.675Z,12.30
2019-05-23T04:56:48.451Z,12.30
2019-05-23T04:59:15.099Z,12.30
2019-05-23T05:01:48.775Z,12.30
2019-05-23T05:04:22.539Z,12.30
2019-05-23T05:07:02.521Z,12.30
2019-05-23T05:09:31.605Z,12.30
2019-05-23T05:12:06.599Z,12.30
2019-05-23T05:14:33.627Z,12.30
2019-05-23T05:17:07.776Z,12.30
2019-05-23T05:19:40.805Z,12.30
2019-05-23T05:22:07.436Z,12.30
2019-05-23T05:24:41.139Z,12.30
2019-05-23T05:27:09.387Z,12.30
2019-05-23T05:29:42.167Z,12.30
2019-05-23T05:32:16.490Z,12.30
2019-05-23T05:34:43.333Z,12.30
2019-05-23T05:37:16.757Z,12.30
2019-05-23T05:39:49.833Z,12.30
2019-05-23T05:42:16.580Z,12.40
2019-05-23T05:44:43.742Z,12.40
2019-05-23T05:47:17.938Z,12.40
2019-05-23T05:49:44.576Z,12.40
2019-05-23T05:52:11.418Z,12.40
2019-05-23T05:54:44.288Z,12.40
2019-05-23T05:57:10.935Z,12.50
2019-05-23T05:59:44.294Z,12.50
2019-05-23T06:02:19.156Z,12.50
2019-05-23T06:04:59.194Z,12.60
2019-05-23T06:07:43.515Z,12.60
2019-05-23T06:10:20.538Z,12.70
2019-05-23T06:12:47.172Z,12.80
2019-05-23T06:15:21.835Z,12.90
2019-05-23T06:17:54.988Z,12.90
2019-05-23T06:20:21.841Z,13.10
2019-05-23T06:22:48.768Z,13.10
2019-05-23T06:25:27.827Z,13.20
2019-05-23T06:28:01.001Z,13.30
2019-05-23T06:30:35.961Z,13.40
2019-05-23T06:33:22.613Z,13.40
2019-05-23T06:35:38.240Z,13.50
2019-05-23T06:38:05.277Z,13.50
2019-05-23T06:40:39.123Z,13.60
2019-05-23T06:43:05.979Z,13.70
2019-05-23T06:45:32.842Z,13.70
2019-05-23T06:48:09.457Z,13.80
2019-05-23T06:50:36.089Z,13.90
2019-05-23T06:53:11.517Z,13.90
2019-05-23T06:55:38.032Z,14.00
2019-05-23T06:58:11.526Z,14.10
2019-05-23T07:00:39.000Z,14.10
2019-05-23T07:03:11.791Z,14.20
2019-05-23T07:05:45.368Z,14.30
2019-05-23T07:08:12.012Z,14.30
2019-05-23T07:10:52.574Z,14.40
2019-05-23T07:13:26.779Z,14.50
2019-05-23T07:15:53.319Z,14.50
2019-05-23T07:18:27.074Z,14.50
2019-05-23T07:21:00.173Z,14.60
2019-05-23T07:23:26.824Z,14.70
2019-05-23T07:26:06.135Z,14.80
2019-05-23T07:28:40.385Z,14.80
2019-05-23T07:31:14.673Z,14.90
2019-05-23T07:33:59.851Z,14.90
2019-05-23T07:36:16.808Z,15.00
2019-05-23T07:38:50.123Z,15.00
2019-05-23T07:41:16.869Z,15.00
2019-05-23T07:43:43.491Z,15.00
2019-05-23T07:46:16.635Z,15.10
2019-05-23T07:48:49.823Z,15.10
2019-05-23T07:51:16.474Z,15.10
2019-05-23T07:54:04.135Z,15.20
2019-05-23T07:56:32.523Z,15.30
2019-05-23T07:59:06.064Z,15.30
2019-05-23T08:01:34.682Z,15.30
2019-05-23T08:04:21.025Z,15.40
2019-05-23T08:06:56.145Z,15.30
2019-05-23T08:09:22.773Z,15.30
2019-05-23T08:12:15.491Z,15.30
2019-05-23T08:14:55.565Z,15.30
2019-05-23T08:17:22.192Z,15.30
2019-05-23T08:19:50.386Z,15.30
2019-05-23T08:22:23.555Z,15.30
2019-05-23T08:24:51.496Z,15.40
2019-05-23T08:27:18.568Z,15.40
2019-05-23T08:29:51.610Z,15.40
2019-05-23T08:32:18.265Z,15.50
2019-05-23T08:34:52.053Z,15.50
2019-05-23T08:37:18.972Z,15.60
2019-05-23T08:39:52.654Z,15.60
2019-05-23T08:42:19.566Z,15.70
2019-05-23T08:44:59.979Z,15.80
2019-05-23T08:47:26.695Z,15.90
2019-05-23T08:49:53.323Z,16.10
2019-05-23T08:52:26.538Z,16.20
2019-05-23T08:55:02.991Z,16.40
2019-05-23T08:57:30.603Z,16.50
2019-05-23T08:59:57.533Z,16.60
2019-05-23T09:02:30.387Z,16.70
2019-05-23T09:05:04.635Z,16.80
2019-05-23T09:07:32.637Z,17.00
2019-05-23T09:09:59.375Z,17.00
2019-05-23T09:12:26.419Z,17.10
2019-05-23T09:15:09.800Z,17.20
2019-05-23T09:17:53.524Z,17.20
2019-05-23T09:20:16.202Z,17.20
2019-05-23T09:22:49.831Z,17.20
2019-05-23T09:25:16.871Z,17.30
2019-05-23T09:27:49.921Z,17.30
2019-05-23T09:30:16.552Z,17.40
2019-05-23T09:32:43.181Z,17.40
2019-05-23T09:35:21.417Z,17.50
2019-05-23T09:37:52.373Z,17.60
2019-05-23T09:40:19.399Z,17.60
2019-05-23T09:42:46.019Z,17.70
2019-05-23T09:45:19.734Z,17.80
2019-05-23T09:47:50.706Z,18.00
2019-05-23T09:50:23.623Z,18.40
2019-05-23T09:52:50.553Z,18.80
2019-05-23T09:55:25.139Z,19.40
2019-05-23T09:57:58.186Z,19.90
2019-05-23T10:00:25.622Z,20.40
2019-05-23T10:02:52.242Z,20.90
2019-05-23T10:05:41.772Z,21.30
2019-05-23T10:08:01.242Z,21.50
2019-05-23T10:10:28.176Z,21.50
2019-05-23T10:12:54.871Z,21.50
2019-05-23T10:15:45.911Z,21.50
2019-05-23T10:18:20.803Z,21.60
2019-05-23T10:20:54.323Z,21.80
2019-05-23T10:23:20.977Z,22.10
2019-05-23T10:26:00.560Z,22.40
2019-05-23T10:28:27.257Z,22.60
2019-05-23T10:31:00.645Z,22.60
2019-05-23T10:33:27.263Z,22.70
2019-05-23T10:36:01.468Z,22.80
2019-05-23T10:38:29.443Z,22.90
2019-05-23T10:40:57.206Z,23.10
2019-05-23T10:43:30.200Z,23.40
2019-05-23T10:46:09.587Z,23.60
2019-05-23T10:48:37.016Z,23.90
2019-05-23T10:51:04.943Z,24.30
2019-05-23T10:53:38.117Z,24.60
2019-05-23T10:56:11.425Z,24.90
2019-05-23T10:58:44.739Z,25.30
2019-05-23T11:01:11.604Z,25.60
2019-05-23T11:03:38.437Z,25.80
2019-05-23T11:06:16.502Z,25.90
2019-05-23T11:08:42.121Z,26.00
2019-05-23T11:11:13.913Z,26.00
2019-05-23T11:13:45.427Z,26.00
2019-05-23T11:16:18.850Z,25.80
2019-05-23T11:18:45.524Z,25.50
2019-05-23T11:21:18.959Z,25.40
2019-05-23T11:23:47.383Z,25.20
2019-05-23T11:26:27.283Z,24.90
2019-05-23T11:29:00.383Z,24.70
2019-05-23T11:31:27.165Z,24.60
2019-05-23T11:33:53.812Z,24.40
2019-05-23T11:36:35.539Z,24.30
2019-05-23T11:38:55.131Z,24.30
2019-05-23T11:41:35.936Z,24.50
2019-05-23T11:44:03.858Z,24.80
2019-05-23T11:46:39.110Z,25.40
2019-05-23T11:49:13.283Z,26.10
2019-05-23T11:51:46.522Z,26.80
2019-05-23T11:54:13.840Z,27.50
2019-05-23T11:56:41.084Z,28.20
2019-05-23T11:59:14.230Z,28.80
2019-05-23T12:01:49.750Z,29.30
2019-05-23T12:04:18.187Z,29.60
2019-05-23T12:06:55.931Z,29.90
2019-05-23T12:09:21.939Z,30.10
2019-05-23T12:11:48.680Z,30.30
2019-05-23T12:14:21.629Z,30.60
2019-05-23T12:16:55.184Z,30.50
2019-05-23T12:19:29.224Z,30.40
2019-05-23T12:21:55.981Z,30.10
2019-05-23T12:24:29.238Z,29.60
2019-05-23T12:27:02.591Z,29.10
2019-05-23T12:29:29.238Z,28.60
2019-05-23T12:32:02.792Z,28.20
2019-05-23T12:34:29.829Z,27.80
2019-05-23T12:37:16.779Z,27.80
2019-05-23T12:39:31.913Z,28.10
2019-05-23T12:41:58.544Z,28.50
2019-05-23T12:44:31.434Z,29.10
2019-05-23T12:47:05.754Z,29.60
2019-05-23T12:49:44.008Z,30.20
2019-05-23T12:52:10.740Z,30.60
2019-05-23T12:54:37.378Z,30.80
2019-05-23T12:57:11.465Z,30.80
2019-05-23T12:59:38.083Z,30.90
2019-05-23T13:02:12.894Z,30.80
2019-05-23T13:04:40.024Z,30.80
2019-05-23T13:07:13.326Z,30.90
2019-05-23T13:09:40.051Z,31.20
2019-05-23T13:12:16.448Z,31.40
2019-05-23T13:14:48.947Z,31.70
2019-05-23T13:17:28.058Z,31.80
2019-05-23T13:20:01.112Z,31.80
2019-05-23T13:22:27.863Z,31.70
2019-05-23T13:24:54.511Z,31.80
2019-05-23T13:27:35.371Z,31.70
2019-05-23T13:30:09.479Z,31.80
2019-05-23T13:32:42.940Z,31.80
2019-05-23T13:35:09.668Z,31.60
2019-05-23T13:37:53.290Z,31.30
2019-05-23T13:40:11.560Z,31.00
2019-05-23T13:42:45.357Z,30.80
2019-05-23T13:45:12.993Z,30.60
2019-05-23T13:47:46.385Z,30.40
2019-05-23T13:50:20.667Z,30.20
2019-05-23T13:52:47.820Z,30.00
2019-05-23T13:55:14.950Z,29.70
2019-05-23T13:57:47.839Z,29.50
2019-05-23T14:00:15.871Z,29.30
2019-05-23T14:02:55.390Z,29.00
2019-05-23T14:05:22.344Z,28.80
2019-05-23T14:08:10.703Z,28.50
2019-05-23T14:10:24.356Z,28.30
2019-05-23T14:12:58.019Z,28.00
2019-05-23T14:15:42.366Z,27.70
2019-05-23T14:18:23.580Z,27.50
2019-05-23T14:20:50.402Z,27.20
2019-05-23T14:23:26.055Z,27.00
2019-05-23T14:26:01.298Z,26.70
2019-05-23T14:28:35.243Z,26.60
2019-05-23T14:31:09.703Z,26.40
2019-05-23T14:34:01.687Z,26.20
2019-05-23T14:36:52.914Z,26.00
2019-05-23T14:39:28.127Z,25.80
2019-05-23T14:42:05.463Z,25.60
2019-05-23T14:44:32.494Z,25.40
2019-05-23T14:47:10.753Z,25.20
2019-05-23T14:49:44.895Z,25.00
2019-05-23T14:52:20.113Z,24.90
2019-05-23T14:54:54.398Z,24.80
2019-05-23T14:57:28.547Z,24.60
2019-05-23T15:00:01.648Z,24.50
2019-05-23T15:02:28.381Z,24.40
2019-05-23T15:05:01.736Z,24.30
2019-05-23T15:07:34.979Z,24.20
2019-05-23T15:10:11.098Z,24.10
2019-05-23T15:12:37.622Z,24.00
2019-05-23T15:15:11.461Z,23.80
2019-05-23T15:17:44.666Z,23.70
2019-05-23T15:20:24.499Z,23.60
2019-05-23T15:22:59.861Z,23.50
2019-05-23T15:25:31.773Z,23.40
2019-05-23T15:27:58.413Z,23.30
2019-05-23T15:30:25.163Z,23.20
2019-05-23T15:32:58.045Z,23.10
2019-05-23T15:35:32.188Z,23.00
2019-05-23T15:37:58.819Z,22.90
2019-05-23T15:40:25.565Z,22.80
2019-05-23T15:42:59.665Z,22.70
2019-05-23T15:45:26.514Z,22.70
2019-05-23T15:48:00.818Z,22.60
2019-05-23T15:50:36.058Z,22.60
2019-05-23T15:53:13.464Z,22.50
2019-05-23T15:55:53.700Z,22.40
2019-05-23T15:58:31.924Z,22.30
2019-05-23T16:01:00.364Z,22.30
2019-05-23T16:03:38.511Z,22.10
2019-05-23T16:06:13.991Z,22.10
2019-05-23T16:08:47.248Z,22.00
2019-05-23T16:11:21.293Z,21.90
2019-05-23T16:13:54.629Z,21.90
2019-05-23T16:16:28.011Z,21.80
2019-05-23T16:19:01.351Z,21.80
2019-05-23T16:21:28.395Z,21.70
2019-05-23T16:24:07.688Z,21.70
2019-05-23T16:26:48.101Z,21.70
2019-05-23T16:29:16.638Z,21.60
2019-05-23T16:31:50.223Z,21.60
2019-05-23T16:34:23.457Z,21.60
2019-05-23T16:36:50.040Z,21.50
2019-05-23T16:39:16.756Z,21.50
2019-05-23T16:41:49.551Z,21.40
2019-05-23T16:44:16.270Z,21.30
2019-05-23T16:46:50.138Z,21.30
2019-05-23T16:49:23.290Z,21.20
2019-05-23T16:51:50.224Z,21.10
2019-05-23T16:54:18.671Z,21.10
2019-05-23T16:56:58.014Z,21.10
2019-05-23T16:59:26.459Z,21.00
2019-05-23T17:02:18.691Z,20.90
2019-05-23T17:04:47.219Z,20.80
2019-05-23T17:07:40.823Z,20.80
2019-05-23T17:10:12.494Z,20.70
2019-05-23T17:12:57.244Z,20.70
2019-05-23T17:15:42.289Z,20.60
2019-05-23T17:18:24.082Z,20.50
2019-05-23T17:21:05.427Z,20.50
2019-05-23T17:23:43.967Z,20.50
2019-05-23T17:26:12.430Z,20.40
2019-05-23T17:28:41.147Z,20.30
2019-05-23T17:31:16.328Z,20.30
2019-05-23T17:33:43.066Z,20.30
2019-05-23T17:36:16.750Z,20.30
2019-05-23T17:38:44.785Z,20.20
2019-05-23T17:41:17.838Z,20.20
2019-05-23T17:43:44.552Z,20.20
2019-05-23T17:46:32.049Z,20.10
2019-05-23T17:49:11.361Z,20.10
2019-05-23T17:51:42.906Z,20.00
2019-05-23T17:54:18.628Z,20.00
2019-05-23T17:56:54.348Z,19.90
2019-05-23T17:59:21.207Z,19.90
2019-05-23T18:01:58.726Z,19.80
2019-05-23T18:04:27.994Z,19.80
2019-05-23T18:07:02.451Z,19.70
2019-05-23T18:09:29.578Z,19.70
2019-05-23T18:12:04.664Z,19.70
2019-05-23T18:14:34.211Z,19.70
2019-05-23T18:17:10.935Z,19.60
2019-05-23T18:19:49.971Z,19.60
2019-05-23T18:22:23.895Z,19.50
2019-05-23T18:24:50.468Z,19.50
2019-05-23T18:27:24.083Z,19.50
2019-05-23T18:29:58.062Z,19.40
2019-05-23T18:32:27.110Z,19.30
2019-05-23T18:35:01.335Z,19.20
2019-05-23T18:37:28.172Z,19.20
2019-05-23T18:40:01.861Z,19.10
2019-05-23T18:42:35.141Z,19.00
2019-05-23T18:45:11.464Z,18.90
2019-05-23T18:47:46.660Z,18.90
2019-05-23T18:50:14.289Z,18.80
2019-05-23T18:52:47.937Z,18.80
2019-05-23T18:55:14.678Z,18.80
2019-05-23T18:57:48.465Z,18.70
2019-05-23T19:00:25.334Z,18.60
2019-05-23T19:02:52.280Z,18.60
2019-05-23T19:05:27.595Z,18.50
2019-05-23T19:08:00.615Z,18.50
2019-05-23T19:10:33.731Z,18.50
2019-05-23T19:13:06.958Z,18.50
2019-05-23T19:15:33.591Z,18.40
2019-05-23T19:18:13.633Z,18.40
2019-05-23T19:20:46.771Z,18.30
2019-05-23T19:23:13.432Z,18.30
2019-05-23T19:25:47.863Z,18.30
2019-05-23T19:28:21.061Z,18.20
2019-05-23T19:30:54.205Z,18.20
2019-05-23T19:33:20.979Z,18.10
2019-05-23T19:35:55.380Z,18.10
2019-05-23T19:38:22.816Z,18.00
2019-05-23T19:40:50.464Z,18.00
2019-05-23T19:43:23.848Z,17.90
2019-05-23T19:45:51.203Z,17.90
2019-05-23T19:48:25.282Z,17.80
2019-05-23T19:50:52.409Z,17.80
2019-05-23T19:53:25.831Z,17.70
2019-05-23T19:55:52.958Z,17.70
2019-05-23T19:58:27.168Z,17.60
2019-05-23T20:01:00.491Z,17.60
2019-05-23T20:03:33.766Z,17.50
2019-05-23T20:06:07.278Z,17.50
2019-05-23T20:08:33.984Z,17.40
2019-05-23T20:11:00.624Z,17.40
2019-05-23T20:13:34.203Z,17.30
2019-05-23T20:16:01.035Z,17.30
2019-05-23T20:18:33.952Z,17.20
2019-05-23T20:21:06.955Z,17.20
2019-05-23T20:23:33.579Z,17.20
2019-05-23T20:28:56.406Z,17.10
2019-05-23T20:31:29.711Z,17.10
2019-05-23T20:34:06.311Z,17.00
2019-05-23T20:36:37.798Z,17.00
2019-05-23T20:39:05.947Z,16.90
2019-05-23T20:41:39.875Z,16.90
2019-05-23T20:44:13.158Z,16.90
2019-05-23T20:46:39.797Z,16.80
2019-05-23T20:49:13.400Z,16.80
2019-05-23T20:51:40.031Z,16.70
2019-05-23T20:54:13.707Z,16.70
2019-05-23T20:56:40.334Z,16.60
2019-05-23T20:59:07.562Z,16.60
2019-05-23T21:01:42.933Z,16.60
2019-05-23T21:04:16.260Z,16.50
2019-05-23T21:06:49.604Z,16.50
2019-05-23T21:09:16.349Z,16.50
2019-05-23T21:11:49.968Z,16.40
2019-05-23T21:14:24.289Z,16.40
2019-05-23T21:16:57.237Z,16.30
2019-05-23T21:19:23.883Z,16.30
2019-05-23T21:21:56.814Z,16.20
2019-05-23T21:24:23.442Z,16.20
2019-05-23T21:27:03.254Z,16.20
2019-05-23T21:29:42.396Z,16.10
2019-05-23T21:32:09.022Z,16.10
2019-05-23T21:34:42.661Z,16.00
2019-05-23T21:37:15.757Z,16.00
2019-05-23T21:39:48.878Z,16.00
2019-05-23T21:42:15.504Z,15.90
2019-05-23T21:44:42.155Z,15.90
2019-05-23T21:47:15.542Z,15.90
2019-05-23T21:49:42.324Z,15.80
2019-05-23T21:52:15.793Z,15.70
2019-05-23T21:54:42.430Z,15.70
2019-05-23T21:57:16.414Z,15.70
2019-05-23T21:59:43.040Z,15.70
2019-05-23T22:02:28.168Z,15.60
2019-05-23T22:04:56.608Z,15.60
2019-05-23T22:07:23.242Z,15.60
2019-05-23T22:09:56.442Z,15.50
2019-05-23T22:12:23.076Z,15.50
2019-05-23T22:14:49.819Z,15.40
2019-05-23T22:17:25.030Z,15.40
2019-05-23T22:19:51.687Z,15.40
2019-05-23T22:22:24.495Z,15.30
2019-05-23T22:24:51.159Z,15.30
2019-05-23T22:27:24.442Z,15.30
2019-05-23T22:30:04.120Z,15.30
2019-05-23T22:32:38.961Z,15.20
2019-05-23T22:35:07.939Z,15.20
2019-05-23T22:37:34.584Z,15.20
2019-05-23T22:40:07.400Z,15.10
2019-05-23T22:42:34.147Z,15.10
2019-05-23T22:45:01.465Z,15.10
2019-05-23T22:47:34.838Z,15.00
2019-05-23T22:50:01.695Z,15.00
2019-05-23T22:52:35.004Z,15.00
2019-05-23T22:55:01.682Z,14.90
2019-05-23T22:57:35.212Z,14.90
2019-05-23T23:00:02.378Z,14.90
2019-05-23T23:02:35.414Z,14.80
2019-05-23T23:05:02.092Z,14.80
2019-05-23T23:07:36.032Z,14.80
2019-05-23T23:10:11.129Z,14.80
2019-05-23T23:12:37.794Z,14.70
2019-05-23T23:15:05.195Z,14.70
2019-05-23T23:17:38.032Z,14.70
2019-05-23T23:20:06.962Z,14.60
2019-05-23T23:22:40.447Z,14.60
2019-05-23T23:25:07.317Z,14.60
2019-05-23T23:27:40.803Z,14.60
2019-05-23T23:30:16.039Z,14.50
2019-05-23T23:32:56.068Z,14.60
2019-05-23T23:35:22.747Z,14.50
2019-05-23T23:37:49.374Z,14.50
2019-05-23T23:40:23.090Z,14.50
2019-05-23T23:42:49.732Z,14.50
2019-05-23T23:45:40.708Z,14.50
2019-05-23T23:48:25.427Z,14.40
2019-05-23T23:51:17.103Z,14.40
2019-05-23T23:54:08.530Z,14.30
2019-05-23T23:59:31.002Z,14.30
